sensor_id;sensor_type;location;lat;lon;timestamp;P1;durP1;ratioP1;P2;durP2;ratioP2
25111;SDS011;13092;51.996;4.458;2023-02-13T00:01:20;45.92;;;40.92;;
25111;SDS011;13092;51.996;4.458;2023-02-13T00:03:48;47.20;;;41.38;;
25111;SDS011;13092;51.996;4.458;2023-02-13T00:06:17;48.40;;;40.75;;
25111;SDS011;13092;51.996;4.458;2023-02-13T00:08:45;46.05;;;41.28;;
25111;SDS011;13092;51.996;4.458;2023-02-13T00:11:21;47.25;;;42.22;;
25111;SDS011;13092;51.996;4.458;2023-02-13T00:13:49;49.17;;;42.33;;
25111;SDS011;13092;51.996;4.458;2023-02-13T00:16:17;45.55;;;40.80;;
25111;SDS011;13092;51.996;4.458;2023-02-13T00:18:45;46.25;;;41.38;;
25111;SDS011;13092;51.996;4.458;2023-02-13T00:21:13;45.75;;;40.95;;
25111;SDS011;13092;51.996;4.458;2023-02-13T00:23:41;45.28;;;40.45;;
25111;SDS011;13092;51.996;4.458;2023-02-13T00:26:10;45.05;;;40.22;;
25111;SDS011;13092;51.996;4.458;2023-02-13T00:28:42;47.53;;;42.38;;
25111;SDS011;13092;51.996;4.458;2023-02-13T00:31:11;46.67;;;41.80;;
25111;SDS011;13092;51.996;4.458;2023-02-13T00:33:40;44.42;;;39.72;;
25111;SDS011;13092;51.996;4.458;2023-02-13T00:36:09;47.28;;;42.38;;
25111;SDS011;13092;51.996;4.458;2023-02-13T00:38:41;49.05;;;43.83;;
25111;SDS011;13092;51.996;4.458;2023-02-13T00:41:10;46.13;;;41.17;;
25111;SDS011;13092;51.996;4.458;2023-02-13T00:43:39;46.70;;;41.88;;
25111;SDS011;13092;51.996;4.458;2023-02-13T00:46:11;47.03;;;42.10;;
25111;SDS011;13092;51.996;4.458;2023-02-13T00:48:40;47.40;;;42.38;;
25111;SDS011;13092;51.996;4.458;2023-02-13T00:51:08;46.78;;;41.88;;
25111;SDS011;13092;51.996;4.458;2023-02-13T00:53:37;47.30;;;42.13;;
25111;SDS011;13092;51.996;4.458;2023-02-13T00:56:06;46.50;;;41.17;;
25111;SDS011;13092;51.996;4.458;2023-02-13T00:58:34;47.75;;;42.65;;
25111;SDS011;13092;51.996;4.458;2023-02-13T01:01:03;46.95;;;41.85;;
25111;SDS011;13092;51.996;4.458;2023-02-13T01:03:33;47.50;;;42.45;;
25111;SDS011;13092;51.996;4.458;2023-02-13T01:06:01;47.28;;;42.20;;
25111;SDS011;13092;51.996;4.458;2023-02-13T01:08:33;46.55;;;41.65;;
25111;SDS011;13092;51.996;4.458;2023-02-13T01:11:01;48.33;;;43.03;;
25111;SDS011;13092;51.996;4.458;2023-02-13T01:13:29;48.97;;;43.83;;
25111;SDS011;13092;51.996;4.458;2023-02-13T01:15:58;48.03;;;42.80;;
25111;SDS011;13092;51.996;4.458;2023-02-13T01:18:26;47.90;;;42.67;;
25111;SDS011;13092;51.996;4.458;2023-02-13T01:20:57;49.33;;;43.95;;
25111;SDS011;13092;51.996;4.458;2023-02-13T01:23:28;47.47;;;42.38;;
25111;SDS011;13092;51.996;4.458;2023-02-13T01:25:57;48.72;;;43.75;;
25111;SDS011;13092;51.996;4.458;2023-02-13T01:28:26;48.33;;;43.22;;
25111;SDS011;13092;51.996;4.458;2023-02-13T01:30:55;46.47;;;41.58;;
25111;SDS011;13092;51.996;4.458;2023-02-13T01:33:25;47.85;;;42.85;;
25111;SDS011;13092;51.996;4.458;2023-02-13T01:35:56;47.95;;;42.75;;
25111;SDS011;13092;51.996;4.458;2023-02-13T01:38:25;48.05;;;42.80;;
25111;SDS011;13092;51.996;4.458;2023-02-13T01:40:57;47.42;;;42.42;;
25111;SDS011;13092;51.996;4.458;2023-02-13T01:43:40;47.00;;;42.00;;
25111;SDS011;13092;51.996;4.458;2023-02-13T01:46:14;48.38;;;43.33;;
25111;SDS011;13092;51.996;4.458;2023-02-13T01:48:46;47.08;;;42.08;;
25111;SDS011;13092;51.996;4.458;2023-02-13T01:51:19;46.40;;;41.47;;
25111;SDS011;13092;51.996;4.458;2023-02-13T01:53:52;47.15;;;42.22;;
25111;SDS011;13092;51.996;4.458;2023-02-13T01:56:26;48.13;;;43.15;;
25111;SDS011;13092;51.996;4.458;2023-02-13T01:58:59;47.75;;;42.65;;
25111;SDS011;13092;51.996;4.458;2023-02-13T02:01:31;47.40;;;42.40;;
25111;SDS011;13092;51.996;4.458;2023-02-13T02:04:00;48.58;;;43.05;;
25111;SDS011;13092;51.996;4.458;2023-02-13T02:06:36;48.42;;;43.35;;
25111;SDS011;13092;51.996;4.458;2023-02-13T02:09:07;47.85;;;42.85;;
25111;SDS011;13092;51.996;4.458;2023-02-13T02:11:40;48.30;;;43.28;;
25111;SDS011;13092;51.996;4.458;2023-02-13T02:14:12;48.42;;;43.35;;
25111;SDS011;13092;51.996;4.458;2023-02-13T02:16:40;48.90;;;43.70;;
25111;SDS011;13092;51.996;4.458;2023-02-13T02:19:16;48.97;;;43.25;;
25111;SDS011;13092;51.996;4.458;2023-02-13T02:22:05;48.08;;;42.95;;
25111;SDS011;13092;51.996;4.458;2023-02-13T02:28:00;47.83;;;42.83;;
25111;SDS011;13092;51.996;4.458;2023-02-13T02:33:55;49.42;;;42.05;;
25111;SDS011;13092;51.996;4.458;2023-02-13T02:36:41;49.80;;;44.35;;
25111;SDS011;13092;51.996;4.458;2023-02-13T02:39:24;48.20;;;42.88;;
25111;SDS011;13092;51.996;4.458;2023-02-13T02:42:04;49.20;;;44.05;;
25111;SDS011;13092;51.996;4.458;2023-02-13T02:44:41;48.22;;;43.00;;
25111;SDS011;13092;51.996;4.458;2023-02-13T02:47:17;49.47;;;44.17;;
25111;SDS011;13092;51.996;4.458;2023-02-13T02:50:15;48.58;;;43.42;;
25111;SDS011;13092;51.996;4.458;2023-02-13T02:55:47;48.75;;;43.78;;
25111;SDS011;13092;51.996;4.458;2023-02-13T02:58:21;48.53;;;43.25;;
25111;SDS011;13092;51.996;4.458;2023-02-13T03:01:13;48.65;;;43.63;;
25111;SDS011;13092;51.996;4.458;2023-02-13T03:04:02;48.50;;;43.10;;
25111;SDS011;13092;51.996;4.458;2023-02-13T03:06:51;48.95;;;43.90;;
25111;SDS011;13092;51.996;4.458;2023-02-13T03:09:25;48.47;;;43.15;;
25111;SDS011;13092;51.996;4.458;2023-02-13T03:12:22;48.95;;;43.78;;
25111;SDS011;13092;51.996;4.458;2023-02-13T03:15:10;48.20;;;43.15;;
25111;SDS011;13092;51.996;4.458;2023-02-13T03:17:39;50.65;;;44.55;;
25111;SDS011;13092;51.996;4.458;2023-02-13T03:20:27;49.35;;;44.20;;
25111;SDS011;13092;51.996;4.458;2023-02-13T03:23:31;49.17;;;43.85;;
25111;SDS011;13092;51.996;4.458;2023-02-13T03:29:11;49.28;;;43.95;;
25111;SDS011;13092;51.996;4.458;2023-02-13T03:32:06;50.95;;;44.15;;
25111;SDS011;13092;51.996;4.458;2023-02-13T03:34:53;49.55;;;44.17;;
25111;SDS011;13092;51.996;4.458;2023-02-13T03:37:48;49.05;;;43.10;;
25111;SDS011;13092;51.996;4.458;2023-02-13T03:40:25;48.45;;;43.20;;
25111;SDS011;13092;51.996;4.458;2023-02-13T03:43:00;49.75;;;42.80;;
25111;SDS011;13092;51.996;4.458;2023-02-13T03:45:35;48.85;;;43.78;;
25111;SDS011;13092;51.996;4.458;2023-02-13T03:48:24;52.22;;;44.00;;
25111;SDS011;13092;51.996;4.458;2023-02-13T03:51:13;48.60;;;43.58;;
25111;SDS011;13092;51.996;4.458;2023-02-13T03:53:45;50.87;;;45.27;;
25111;SDS011;13092;51.996;4.458;2023-02-13T03:56:20;48.70;;;43.40;;
25111;SDS011;13092;51.996;4.458;2023-02-13T03:59:08;47.95;;;42.83;;
25111;SDS011;13092;51.996;4.458;2023-02-13T04:01:48;52.55;;;44.78;;
25111;SDS011;13092;51.996;4.458;2023-02-13T04:04:25;49.97;;;44.58;;
25111;SDS011;13092;51.996;4.458;2023-02-13T04:07:01;48.47;;;43.28;;
25111;SDS011;13092;51.996;4.458;2023-02-13T04:09:31;51.40;;;43.33;;
25111;SDS011;13092;51.996;4.458;2023-02-13T04:12:11;50.93;;;45.30;;
25111;SDS011;13092;51.996;4.458;2023-02-13T04:14:46;50.08;;;44.58;;
25111;SDS011;13092;51.996;4.458;2023-02-13T04:17:18;52.47;;;46.65;;
25111;SDS011;13092;51.996;4.458;2023-02-13T04:19:51;50.65;;;44.72;;
25111;SDS011;13092;51.996;4.458;2023-02-13T04:22:19;49.13;;;43.97;;
25111;SDS011;13092;51.996;4.458;2023-02-13T04:24:47;49.28;;;43.92;;
25111;SDS011;13092;51.996;4.458;2023-02-13T04:27:17;49.28;;;44.05;;
25111;SDS011;13092;51.996;4.458;2023-02-13T04:29:46;51.38;;;45.90;;
25111;SDS011;13092;51.996;4.458;2023-02-13T04:32:14;48.93;;;43.67;;
25111;SDS011;13092;51.996;4.458;2023-02-13T04:34:42;49.20;;;43.90;;
25111;SDS011;13092;51.996;4.458;2023-02-13T04:37:10;49.03;;;43.75;;
25111;SDS011;13092;51.996;4.458;2023-02-13T04:39:39;48.88;;;43.78;;
25111;SDS011;13092;51.996;4.458;2023-02-13T04:42:07;47.58;;;42.47;;
25111;SDS011;13092;51.996;4.458;2023-02-13T04:44:36;49.75;;;44.15;;
25111;SDS011;13092;51.996;4.458;2023-02-13T04:47:04;49.20;;;43.90;;
25111;SDS011;13092;51.996;4.458;2023-02-13T04:49:33;49.40;;;44.22;;
25111;SDS011;13092;51.996;4.458;2023-02-13T04:52:01;49.90;;;44.30;;
25111;SDS011;13092;51.996;4.458;2023-02-13T04:54:29;47.60;;;42.60;;
25111;SDS011;13092;51.996;4.458;2023-02-13T04:56:57;46.38;;;41.38;;
25111;SDS011;13092;51.996;4.458;2023-02-13T04:59:25;48.45;;;43.25;;
25111;SDS011;13092;51.996;4.458;2023-02-13T05:01:55;48.05;;;42.92;;
25111;SDS011;13092;51.996;4.458;2023-02-13T05:04:24;47.90;;;42.90;;
25111;SDS011;13092;51.996;4.458;2023-02-13T05:06:54;47.60;;;42.60;;
25111;SDS011;13092;51.996;4.458;2023-02-13T05:09:23;47.60;;;42.58;;
25111;SDS011;13092;51.996;4.458;2023-02-13T05:11:51;46.45;;;41.63;;
25111;SDS011;13092;51.996;4.458;2023-02-13T05:14:20;47.95;;;42.88;;
25111;SDS011;13092;51.996;4.458;2023-02-13T05:16:48;46.70;;;41.63;;
25111;SDS011;13092;51.996;4.458;2023-02-13T05:19:18;47.10;;;42.10;;
25111;SDS011;13092;51.996;4.458;2023-02-13T05:21:46;48.03;;;43.03;;
25111;SDS011;13092;51.996;4.458;2023-02-13T05:24:32;46.13;;;41.28;;
25111;SDS011;13092;51.996;4.458;2023-02-13T05:27:00;46.25;;;41.05;;
25111;SDS011;13092;51.996;4.458;2023-02-13T05:29:28;45.47;;;40.67;;
25111;SDS011;13092;51.996;4.458;2023-02-13T05:31:59;47.42;;;42.30;;
25111;SDS011;13092;51.996;4.458;2023-02-13T05:34:29;47.75;;;42.55;;
25111;SDS011;13092;51.996;4.458;2023-02-13T05:36:57;45.65;;;40.95;;
25111;SDS011;13092;51.996;4.458;2023-02-13T05:39:25;46.95;;;41.97;;
25111;SDS011;13092;51.996;4.458;2023-02-13T05:41:53;48.83;;;42.75;;
25111;SDS011;13092;51.996;4.458;2023-02-13T05:44:22;47.65;;;41.63;;
25111;SDS011;13092;51.996;4.458;2023-02-13T05:46:50;49.72;;;41.95;;
25111;SDS011;13092;51.996;4.458;2023-02-13T05:49:19;46.58;;;41.58;;
25111;SDS011;13092;51.996;4.458;2023-02-13T05:51:49;46.80;;;41.70;;
25111;SDS011;13092;51.996;4.458;2023-02-13T05:54:18;47.42;;;42.45;;
25111;SDS011;13092;51.996;4.458;2023-02-13T05:56:46;46.83;;;41.75;;
25111;SDS011;13092;51.996;4.458;2023-02-13T05:59:14;47.58;;;42.25;;
25111;SDS011;13092;51.996;4.458;2023-02-13T06:01:43;48.67;;;42.85;;
25111;SDS011;13092;51.996;4.458;2023-02-13T06:04:12;48.00;;;42.83;;
25111;SDS011;13092;51.996;4.458;2023-02-13T06:06:40;47.25;;;42.20;;
25111;SDS011;13092;51.996;4.458;2023-02-13T06:09:11;48.45;;;42.58;;
25111;SDS011;13092;51.996;4.458;2023-02-13T06:11:39;49.78;;;42.65;;
25111;SDS011;13092;51.996;4.458;2023-02-13T06:14:07;48.13;;;41.72;;
25111;SDS011;13092;51.996;4.458;2023-02-13T06:16:36;51.13;;;42.93;;
25111;SDS011;13092;51.996;4.458;2023-02-13T06:19:04;47.17;;;41.90;;
25111;SDS011;13092;51.996;4.458;2023-02-13T06:21:32;52.50;;;43.47;;
25111;SDS011;13092;51.996;4.458;2023-02-13T06:24:03;49.95;;;41.70;;
25111;SDS011;13092;51.996;4.458;2023-02-13T06:26:33;47.75;;;42.28;;
25111;SDS011;13092;51.996;4.458;2023-02-13T06:29:02;44.83;;;38.93;;
25111;SDS011;13092;51.996;4.458;2023-02-13T06:31:32;43.13;;;38.53;;
25111;SDS011;13092;51.996;4.458;2023-02-13T06:34:00;41.97;;;37.22;;
25111;SDS011;13092;51.996;4.458;2023-02-13T06:36:28;42.10;;;37.58;;
25111;SDS011;13092;51.996;4.458;2023-02-13T06:39:00;42.00;;;37.33;;
25111;SDS011;13092;51.996;4.458;2023-02-13T06:41:28;40.90;;;36.50;;
25111;SDS011;13092;51.996;4.458;2023-02-13T06:44:00;43.23;;;38.53;;
25111;SDS011;13092;51.996;4.458;2023-02-13T06:46:29;42.20;;;37.45;;
25111;SDS011;13092;51.996;4.458;2023-02-13T06:48:57;43.30;;;38.67;;
25111;SDS011;13092;51.996;4.458;2023-02-13T06:51:25;40.78;;;36.40;;
25111;SDS011;13092;51.996;4.458;2023-02-13T06:53:53;44.28;;;37.78;;
25111;SDS011;13092;51.996;4.458;2023-02-13T06:56:21;43.55;;;38.25;;
25111;SDS011;13092;51.996;4.458;2023-02-13T06:58:51;45.53;;;38.23;;
25111;SDS011;13092;51.996;4.458;2023-02-13T07:01:20;43.65;;;38.80;;
25111;SDS011;13092;51.996;4.458;2023-02-13T07:03:49;43.80;;;39.07;;
25111;SDS011;13092;51.996;4.458;2023-02-13T07:06:17;43.65;;;38.90;;
25111;SDS011;13092;51.996;4.458;2023-02-13T07:08:45;42.45;;;37.85;;
25111;SDS011;13092;51.996;4.458;2023-02-13T07:11:17;43.90;;;39.20;;
25111;SDS011;13092;51.996;4.458;2023-02-13T07:13:45;41.67;;;37.20;;
25111;SDS011;13092;51.996;4.458;2023-02-13T07:16:13;46.13;;;39.17;;
25111;SDS011;13092;51.996;4.458;2023-02-13T07:18:45;42.70;;;38.17;;
25111;SDS011;13092;51.996;4.458;2023-02-13T07:21:13;43.37;;;38.83;;
25111;SDS011;13092;51.996;4.458;2023-02-13T07:23:41;44.63;;;39.78;;
25111;SDS011;13092;51.996;4.458;2023-02-13T07:26:10;43.88;;;39.17;;
25111;SDS011;13092;51.996;4.458;2023-02-13T07:28:38;43.05;;;38.35;;
25111;SDS011;13092;51.996;4.458;2023-02-13T07:31:09;43.17;;;38.38;;
25111;SDS011;13092;51.996;4.458;2023-02-13T07:33:37;44.00;;;39.08;;
25111;SDS011;13092;51.996;4.458;2023-02-13T07:36:07;43.05;;;38.47;;
25111;SDS011;13092;51.996;4.458;2023-02-13T07:38:35;43.80;;;38.97;;
25111;SDS011;13092;51.996;4.458;2023-02-13T07:41:03;47.10;;;39.10;;
25111;SDS011;13092;51.996;4.458;2023-02-13T07:43:31;43.83;;;38.53;;
25111;SDS011;13092;51.996;4.458;2023-02-13T07:46:00;45.45;;;40.08;;
25111;SDS011;13092;51.996;4.458;2023-02-13T07:48:29;46.72;;;39.13;;
25111;SDS011;13092;51.996;4.458;2023-02-13T07:50:58;43.83;;;39.10;;
25111;SDS011;13092;51.996;4.458;2023-02-13T07:53:31;43.83;;;38.72;;
25111;SDS011;13092;51.996;4.458;2023-02-13T07:55:59;45.38;;;39.42;;
25111;SDS011;13092;51.996;4.458;2023-02-13T07:58:31;49.78;;;40.65;;
25111;SDS011;13092;51.996;4.458;2023-02-13T08:01:04;47.80;;;40.47;;
25111;SDS011;13092;51.996;4.458;2023-02-13T08:03:33;46.15;;;40.83;;
25111;SDS011;13092;51.996;4.458;2023-02-13T08:06:01;45.17;;;40.20;;
25111;SDS011;13092;51.996;4.458;2023-02-13T08:08:31;46.28;;;40.50;;
25111;SDS011;13092;51.996;4.458;2023-02-13T08:11:02;54.78;;;40.97;;
25111;SDS011;13092;51.996;4.458;2023-02-13T08:13:49;46.67;;;40.58;;
25111;SDS011;13092;51.996;4.458;2023-02-13T08:16:17;46.53;;;41.17;;
25111;SDS011;13092;51.996;4.458;2023-02-13T08:18:48;45.10;;;39.80;;
25111;SDS011;13092;51.996;4.458;2023-02-13T08:21:16;46.72;;;41.63;;
25111;SDS011;13092;51.996;4.458;2023-02-13T08:23:46;46.15;;;41.22;;
25111;SDS011;13092;51.996;4.458;2023-02-13T08:26:17;44.58;;;39.88;;
25111;SDS011;13092;51.996;4.458;2023-02-13T08:28:45;46.08;;;40.88;;
25111;SDS011;13092;51.996;4.458;2023-02-13T08:31:13;49.47;;;41.65;;
25111;SDS011;13092;51.996;4.458;2023-02-13T08:33:41;45.95;;;40.90;;
25111;SDS011;13092;51.996;4.458;2023-02-13T08:36:09;48.90;;;41.67;;
25111;SDS011;13092;51.996;4.458;2023-02-13T08:38:37;46.13;;;40.00;;
25111;SDS011;13092;51.996;4.458;2023-02-13T08:41:07;48.65;;;41.35;;
25111;SDS011;13092;51.996;4.458;2023-02-13T08:43:35;46.67;;;40.83;;
25111;SDS011;13092;51.996;4.458;2023-02-13T08:46:03;46.08;;;40.75;;
25111;SDS011;13092;51.996;4.458;2023-02-13T08:48:32;51.67;;;41.08;;
25111;SDS011;13092;51.996;4.458;2023-02-13T08:51:03;46.65;;;41.47;;
25111;SDS011;13092;51.996;4.458;2023-02-13T08:53:33;47.63;;;40.95;;
25111;SDS011;13092;51.996;4.458;2023-02-13T08:56:01;50.88;;;41.60;;
25111;SDS011;13092;51.996;4.458;2023-02-13T08:58:33;51.75;;;40.70;;
25111;SDS011;13092;51.996;4.458;2023-02-13T09:01:03;53.20;;;40.90;;
25111;SDS011;13092;51.996;4.458;2023-02-13T09:03:32;51.87;;;43.53;;
25111;SDS011;13092;51.996;4.458;2023-02-13T09:06:01;51.60;;;43.03;;
25111;SDS011;13092;51.996;4.458;2023-02-13T09:08:30;53.00;;;43.22;;
25111;SDS011;13092;51.996;4.458;2023-02-13T09:11:05;50.70;;;41.90;;
25111;SDS011;13092;51.996;4.458;2023-02-13T09:13:37;51.78;;;42.53;;
25111;SDS011;13092;51.996;4.458;2023-02-13T09:16:05;50.10;;;42.83;;
25111;SDS011;13092;51.996;4.458;2023-02-13T09:18:35;50.63;;;42.83;;
25111;SDS011;13092;51.996;4.458;2023-02-13T09:21:04;51.80;;;42.03;;
25111;SDS011;13092;51.996;4.458;2023-02-13T09:23:35;52.42;;;42.28;;
25111;SDS011;13092;51.996;4.458;2023-02-13T09:26:06;52.17;;;43.20;;
25111;SDS011;13092;51.996;4.458;2023-02-13T09:28:37;53.70;;;43.93;;
25111;SDS011;13092;51.996;4.458;2023-02-13T09:31:07;53.60;;;42.85;;
25111;SDS011;13092;51.996;4.458;2023-02-13T09:33:36;50.67;;;43.08;;
25111;SDS011;13092;51.996;4.458;2023-02-13T09:36:04;50.38;;;43.13;;
25111;SDS011;13092;51.996;4.458;2023-02-13T09:38:36;51.90;;;44.15;;
25111;SDS011;13092;51.996;4.458;2023-02-13T09:41:08;50.08;;;43.85;;
25111;SDS011;13092;51.996;4.458;2023-02-13T09:43:45;56.55;;;43.50;;
25111;SDS011;13092;51.996;4.458;2023-02-13T09:46:16;51.55;;;42.83;;
25111;SDS011;13092;51.996;4.458;2023-02-13T09:48:50;52.20;;;42.60;;
25111;SDS011;13092;51.996;4.458;2023-02-13T09:51:21;55.63;;;43.58;;
25111;SDS011;13092;51.996;4.458;2023-02-13T09:53:52;51.05;;;42.90;;
25111;SDS011;13092;51.996;4.458;2023-02-13T09:56:27;53.30;;;44.35;;
25111;SDS011;13092;51.996;4.458;2023-02-13T09:59:21;51.80;;;42.50;;
25111;SDS011;13092;51.996;4.458;2023-02-13T10:02:00;52.80;;;43.35;;
25111;SDS011;13092;51.996;4.458;2023-02-13T10:04:44;49.40;;;43.50;;
25111;SDS011;13092;51.996;4.458;2023-02-13T10:07:19;59.40;;;44.92;;
25111;SDS011;13092;51.996;4.458;2023-02-13T10:09:54;53.42;;;44.08;;
25111;SDS011;13092;51.996;4.458;2023-02-13T10:12:30;52.40;;;44.00;;
25111;SDS011;13092;51.996;4.458;2023-02-13T10:15:16;56.42;;;44.83;;
25111;SDS011;13092;51.996;4.458;2023-02-13T10:17:52;52.08;;;44.08;;
25111;SDS011;13092;51.996;4.458;2023-02-13T10:20:27;54.42;;;44.25;;
25111;SDS011;13092;51.996;4.458;2023-02-13T10:23:02;53.60;;;44.63;;
25111;SDS011;13092;51.996;4.458;2023-02-13T10:25:41;53.22;;;43.58;;
25111;SDS011;13092;51.996;4.458;2023-02-13T10:28:13;55.40;;;45.33;;
25111;SDS011;13092;51.996;4.458;2023-02-13T10:30:49;55.08;;;45.25;;
25111;SDS011;13092;51.996;4.458;2023-02-13T10:33:22;58.95;;;46.17;;
25111;SDS011;13092;51.996;4.458;2023-02-13T10:35:57;53.60;;;45.47;;
25111;SDS011;13092;51.996;4.458;2023-02-13T10:38:30;56.75;;;44.67;;
25111;SDS011;13092;51.996;4.458;2023-02-13T10:41:03;57.92;;;46.65;;
25111;SDS011;13092;51.996;4.458;2023-02-13T10:43:44;55.83;;;45.13;;
25111;SDS011;13092;51.996;4.458;2023-02-13T10:46:25;56.08;;;44.53;;
25111;SDS011;13092;51.996;4.458;2023-02-13T10:49:04;59.13;;;45.40;;
25111;SDS011;13092;51.996;4.458;2023-02-13T10:51:49;58.53;;;44.80;;
25111;SDS011;13092;51.996;4.458;2023-02-13T10:54:29;53.83;;;43.83;;
25111;SDS011;13092;51.996;4.458;2023-02-13T10:57:15;56.78;;;44.58;;
25111;SDS011;13092;51.996;4.458;2023-02-13T10:59:54;57.70;;;45.53;;
25111;SDS011;13092;51.996;4.458;2023-02-13T11:02:36;53.13;;;44.97;;
25111;SDS011;13092;51.996;4.458;2023-02-13T11:05:11;48.67;;;43.13;;
25111;SDS011;13092;51.996;4.458;2023-02-13T11:07:43;54.53;;;45.42;;
25111;SDS011;13092;51.996;4.458;2023-02-13T11:10:13;51.65;;;44.33;;
25111;SDS011;13092;51.996;4.458;2023-02-13T11:12:43;51.45;;;43.83;;
25111;SDS011;13092;51.996;4.458;2023-02-13T11:15:24;55.80;;;45.50;;
25111;SDS011;13092;51.996;4.458;2023-02-13T11:17:56;52.30;;;46.05;;
25111;SDS011;13092;51.996;4.458;2023-02-13T11:20:31;56.47;;;45.97;;
25111;SDS011;13092;51.996;4.458;2023-02-13T11:23:16;52.38;;;43.95;;
25111;SDS011;13092;51.996;4.458;2023-02-13T11:25:59;53.92;;;44.15;;
25111;SDS011;13092;51.996;4.458;2023-02-13T11:28:29;53.08;;;44.70;;
25111;SDS011;13092;51.996;4.458;2023-02-13T11:31:09;50.70;;;45.05;;
25111;SDS011;13092;51.996;4.458;2023-02-13T11:33:43;52.40;;;46.53;;
25111;SDS011;13092;51.996;4.458;2023-02-13T11:36:15;53.45;;;44.40;;
25111;SDS011;13092;51.996;4.458;2023-02-13T11:38:58;52.35;;;44.72;;
25111;SDS011;13092;51.996;4.458;2023-02-13T11:41:36;55.53;;;46.78;;
25111;SDS011;13092;51.996;4.458;2023-02-13T11:44:16;54.33;;;46.22;;
25111;SDS011;13092;51.996;4.458;2023-02-13T11:46:55;53.92;;;46.88;;
25111;SDS011;13092;51.996;4.458;2023-02-13T11:49:28;53.97;;;45.05;;
25111;SDS011;13092;51.996;4.458;2023-02-13T11:51:58;48.70;;;43.50;;
25111;SDS011;13092;51.996;4.458;2023-02-13T11:54:29;52.58;;;46.20;;
25111;SDS011;13092;51.996;4.458;2023-02-13T11:57:01;55.88;;;48.42;;
25111;SDS011;13092;51.996;4.458;2023-02-13T11:59:32;53.75;;;46.40;;
25111;SDS011;13092;51.996;4.458;2023-02-13T12:02:13;53.75;;;47.95;;
25111;SDS011;13092;51.996;4.458;2023-02-13T12:04:45;52.28;;;46.70;;
25111;SDS011;13092;51.996;4.458;2023-02-13T12:07:24;51.00;;;45.20;;
25111;SDS011;13092;51.996;4.458;2023-02-13T12:09:56;50.10;;;44.80;;
25111;SDS011;13092;51.996;4.458;2023-02-13T12:12:30;49.33;;;44.08;;
25111;SDS011;13092;51.996;4.458;2023-02-13T12:15:03;49.28;;;44.08;;
25111;SDS011;13092;51.996;4.458;2023-02-13T12:17:42;48.45;;;43.58;;
25111;SDS011;13092;51.996;4.458;2023-02-13T12:20:16;49.50;;;44.58;;
25111;SDS011;13092;51.996;4.458;2023-02-13T12:22:47;50.35;;;44.92;;
25111;SDS011;13092;51.996;4.458;2023-02-13T12:28:15;49.05;;;44.15;;
25111;SDS011;13092;51.996;4.458;2023-02-13T12:33:56;50.08;;;44.92;;
25111;SDS011;13092;51.996;4.458;2023-02-13T12:36:48;46.90;;;42.53;;
25111;SDS011;13092;51.996;4.458;2023-02-13T12:39:29;48.72;;;43.92;;
25111;SDS011;13092;51.996;4.458;2023-02-13T12:42:07;48.42;;;43.78;;
25111;SDS011;13092;51.996;4.458;2023-02-13T12:44:53;49.22;;;44.60;;
25111;SDS011;13092;51.996;4.458;2023-02-13T12:47:32;49.28;;;44.45;;
25111;SDS011;13092;51.996;4.458;2023-02-13T12:53:35;47.10;;;42.65;;
25111;SDS011;13092;51.996;4.458;2023-02-13T12:56:20;44.88;;;40.88;;
25111;SDS011;13092;51.996;4.458;2023-02-13T12:59:16;43.83;;;39.75;;
25111;SDS011;13092;51.996;4.458;2023-02-13T13:02:01;42.92;;;39.08;;
25111;SDS011;13092;51.996;4.458;2023-02-13T13:04:43;42.95;;;39.15;;
25111;SDS011;13092;51.996;4.458;2023-02-13T13:07:18;43.22;;;39.28;;
25111;SDS011;13092;51.996;4.458;2023-02-13T13:12:58;41.22;;;37.47;;
25111;SDS011;13092;51.996;4.458;2023-02-13T13:15:38;40.90;;;37.10;;
25111;SDS011;13092;51.996;4.458;2023-02-13T13:18:15;41.65;;;37.92;;
25111;SDS011;13092;51.996;4.458;2023-02-13T13:20:56;41.80;;;37.60;;
25111;SDS011;13092;51.996;4.458;2023-02-13T13:23:33;40.42;;;36.72;;
25111;SDS011;13092;51.996;4.458;2023-02-13T13:26:11;40.67;;;37.05;;
25111;SDS011;13092;51.996;4.458;2023-02-13T13:28:47;39.22;;;35.65;;
25111;SDS011;13092;51.996;4.458;2023-02-13T13:31:20;38.15;;;34.80;;
25111;SDS011;13092;51.996;4.458;2023-02-13T13:33:51;39.00;;;35.58;;
25111;SDS011;13092;51.996;4.458;2023-02-13T13:36:30;37.50;;;34.10;;
25111;SDS011;13092;51.996;4.458;2023-02-13T13:39:05;38.53;;;34.75;;
25111;SDS011;13092;51.996;4.458;2023-02-13T13:41:48;37.30;;;34.03;;
25111;SDS011;13092;51.996;4.458;2023-02-13T13:44:30;35.95;;;32.38;;
25111;SDS011;13092;51.996;4.458;2023-02-13T13:47:14;35.85;;;32.42;;
25111;SDS011;13092;51.996;4.458;2023-02-13T13:49:50;37.60;;;34.08;;
25111;SDS011;13092;51.996;4.458;2023-02-13T13:52:22;36.42;;;33.10;;
25111;SDS011;13092;51.996;4.458;2023-02-13T13:54:52;35.13;;;31.75;;
25111;SDS011;13092;51.996;4.458;2023-02-13T13:57:24;36.03;;;32.70;;
25111;SDS011;13092;51.996;4.458;2023-02-13T13:59:57;34.47;;;31.30;;
25111;SDS011;13092;51.996;4.458;2023-02-13T14:02:51;34.63;;;31.45;;
25111;SDS011;13092;51.996;4.458;2023-02-13T14:05:57;33.47;;;30.17;;
25111;SDS011;13092;51.996;4.458;2023-02-13T14:11:25;31.48;;;28.42;;
25111;SDS011;13092;51.996;4.458;2023-02-13T14:13:59;31.40;;;28.30;;
25111;SDS011;13092;51.996;4.458;2023-02-13T14:16:39;29.50;;;26.60;;
25111;SDS011;13092;51.996;4.458;2023-02-13T14:24:59;24.92;;;22.42;;
25111;SDS011;13092;51.996;4.458;2023-02-13T14:27:29;25.85;;;22.40;;
25111;SDS011;13092;51.996;4.458;2023-02-13T14:30:04;26.08;;;23.15;;
25111;SDS011;13092;51.996;4.458;2023-02-13T14:32:48;24.88;;;22.27;;
25111;SDS011;13092;51.996;4.458;2023-02-13T14:35:17;26.13;;;20.48;;
25111;SDS011;13092;51.996;4.458;2023-02-13T14:37:50;24.27;;;20.15;;
25111;SDS011;13092;51.996;4.458;2023-02-13T14:40:31;25.20;;;18.95;;
25111;SDS011;13092;51.996;4.458;2023-02-13T14:43:20;21.70;;;17.30;;
25111;SDS011;13092;51.996;4.458;2023-02-13T14:49:01;21.02;;;18.70;;
25111;SDS011;13092;51.996;4.458;2023-02-13T14:51:37;21.67;;;16.98;;
25111;SDS011;13092;51.996;4.458;2023-02-13T14:54:11;20.17;;;16.00;;
25111;SDS011;13092;51.996;4.458;2023-02-13T14:56:46;23.27;;;18.33;;
25111;SDS011;13092;51.996;4.458;2023-02-13T14:59:17;24.30;;;16.10;;
25111;SDS011;13092;51.996;4.458;2023-02-13T15:01:51;19.55;;;15.27;;
25111;SDS011;13092;51.996;4.458;2023-02-13T15:04:25;22.83;;;16.60;;
25111;SDS011;13092;51.996;4.458;2023-02-13T15:07:01;23.42;;;15.35;;
25111;SDS011;13092;51.996;4.458;2023-02-13T15:09:32;21.17;;;14.88;;
25111;SDS011;13092;51.996;4.458;2023-02-13T15:12:22;20.48;;;14.15;;
25111;SDS011;13092;51.996;4.458;2023-02-13T15:14:51;19.50;;;13.43;;
25111;SDS011;13092;51.996;4.458;2023-02-13T15:17:21;19.33;;;13.75;;
25111;SDS011;13092;51.996;4.458;2023-02-13T15:19:53;21.52;;;13.80;;
25111;SDS011;13092;51.996;4.458;2023-02-13T15:22:28;21.33;;;14.65;;
25111;SDS011;13092;51.996;4.458;2023-02-13T15:24:59;19.98;;;12.73;;
25111;SDS011;13092;51.996;4.458;2023-02-13T15:27:28;20.23;;;12.40;;
25111;SDS011;13092;51.996;4.458;2023-02-13T15:29:59;22.67;;;12.93;;
25111;SDS011;13092;51.996;4.458;2023-02-13T15:32:33;20.83;;;12.40;;
25111;SDS011;13092;51.996;4.458;2023-02-13T15:35:09;19.77;;;12.55;;